This is the latest recevied weather packets stored in our database for station/object KC4JIR. If no packets are shown the sender has not sent any weather packets the latest 10 day(s).
| Time | Temp. | Humidity | Pressure | Rain* | Wind** | Luminosity | Snow |
|---|---|---|---|---|---|---|---|
| 1777487113 | 28.89° C | 57% | 1010.6 hPa | 0 mm | - | 730 W/m² | - |
| 1777486809 | 28.89° C | 58% | 1010.7 hPa | 0 mm | - | 655 W/m² | - |
| 1777486507 | 28.89° C | 58% | 1010.6 hPa | 0 mm | - | 655 W/m² | - |
| 1777486204 | 28.33° C | 61% | 1010.7 hPa | 0 mm | - | 674 W/m² | - |
| 1777485901 | 28.33° C | 61% | 1010.7 hPa | 0 mm | - | 672 W/m² | - |
| 1777485596 | 28.33° C | 62% | 1010.7 hPa | 0 mm | - | 723 W/m² | - |
| 1777485292 | 28.33° C | 62% | 1010.7 hPa | 0 mm | - | 754 W/m² | - |
| 1777484989 | 28.33° C | 63% | 1010.7 hPa | 0 mm | - | 783 W/m² | - |
| 1777484686 | 27.78° C | 64% | 1010.7 hPa | 0 mm | - | 740 W/m² | - |
| 1777484383 | 27.78° C | 65% | 1010.7 hPa | 0 mm | - | 790 W/m² | - |
| 1777484079 | 27.78° C | 65% | 1010.9 hPa | 0 mm | - | 658 W/m² | - |
| 1777483775 | 27.78° C | 65% | 1011.2 hPa | 0 mm | - | 658 W/m² | - |
| 1777483472 | 27.78° C | 66% | 1010.9 hPa | 0 mm | - | 733 W/m² | - |
| 1777483166 | 27.78° C | 66% | 1011.3 hPa | 0 mm | - | 415 W/m² | - |
| 1777482864 | 27.22° C | 64% | 1011.1 hPa | 0 mm | - | 746 W/m² | - |
| 1777482559 | 26.67° C | 66% | 1011.2 hPa | 0 mm | - | 570 W/m² | - |
| 1777482257 | 26.67° C | 68% | 1011.2 hPa | 0 mm | - | 629 W/m² | - |
| 1777481954 | 27.22° C | 67% | 1011.1 hPa | 0 mm | - | 656 W/m² | - |
| 1777481652 | 26.67° C | 67% | 1011.3 hPa | 0 mm | - | 724 W/m² | - |
| 1777481348 | 26.67° C | 67% | 1011.3 hPa | 0 mm | - | 692 W/m² | - |
| 1777481045 | 26.67° C | 66% | 1011.3 hPa | 0 mm | - | 765 W/m² | - |
| 1777480742 | 26.67° C | 66% | 1011.3 hPa | 0 mm | - | 788 W/m² | - |
| 1777480438 | 26.67° C | 65% | 1011.6 hPa | 0 mm | - | 789 W/m² | - |
| 1777480134 | 26.67° C | 67% | 1011.9 hPa | 0 mm | - | 726 W/m² | - |
| 1777479831 | 26.67° C | 67% | 1011.8 hPa | 0 mm | - | 726 W/m² | - |
* Rain latest hour (hover to see other rain measurements)
** Current wind speed in m/s (hover to see current wind gust speed)